createdAt,value
2022-12-01T00:00:40.487Z,2.90
2022-12-01T00:03:45.260Z,2.90
2022-12-01T00:06:49.964Z,2.90
2022-12-01T00:10:13.453Z,2.90
2022-12-01T00:13:18.493Z,2.90
2022-12-01T00:16:23.261Z,2.90
2022-12-01T00:19:27.684Z,2.90
2022-12-01T00:22:33.567Z,2.90
2022-12-01T00:25:38.303Z,2.90
2022-12-01T00:28:42.973Z,2.90
2022-12-01T00:31:47.756Z,2.90
2022-12-01T00:34:52.320Z,2.90
2022-12-01T00:37:57.198Z,2.90
2022-12-01T00:41:01.519Z,2.90
2022-12-01T00:44:06.203Z,3.00
2022-12-01T00:47:11.180Z,2.90
2022-12-01T00:50:15.559Z,2.90
2022-12-01T00:53:19.683Z,3.00
2022-12-01T00:56:24.357Z,3.00
2022-12-01T00:59:28.632Z,3.00
2022-12-01T01:02:33.401Z,3.10
2022-12-01T01:05:39.471Z,3.10
2022-12-01T01:08:43.751Z,3.10
2022-12-01T01:11:47.652Z,3.10
2022-12-01T01:14:52.159Z,3.20
2022-12-01T01:17:56.435Z,3.20
2022-12-01T01:21:02.417Z,3.20
2022-12-01T01:24:06.832Z,3.20
2022-12-01T01:27:10.839Z,3.20
2022-12-01T01:30:15.372Z,3.20
2022-12-01T01:33:20.177Z,3.20
2022-12-01T01:36:25.565Z,3.30
2022-12-01T01:39:29.964Z,3.30
2022-12-01T01:42:33.878Z,3.30
2022-12-01T01:45:37.893Z,3.30
2022-12-01T01:48:45.235Z,3.30
2022-12-01T01:51:50.561Z,3.40
2022-12-01T01:54:55.623Z,3.30
2022-12-01T01:58:01.063Z,3.50
2022-12-01T02:01:05.570Z,3.40
2022-12-01T02:04:10.036Z,3.40
2022-12-01T02:07:16.239Z,3.40
2022-12-01T02:10:24.458Z,3.50
2022-12-01T02:13:39.005Z,3.50
2022-12-01T02:16:46.468Z,3.50
2022-12-01T02:20:09.447Z,3.50
2022-12-01T02:23:22.908Z,3.50
2022-12-01T02:26:27.827Z,3.50
2022-12-01T02:29:58.872Z,3.60
2022-12-01T02:33:06.911Z,3.60
2022-12-01T02:36:17.453Z,3.50
2022-12-01T02:39:34.231Z,3.50
2022-12-01T02:43:00.009Z,3.60
2022-12-01T02:46:04.642Z,3.50
2022-12-01T02:49:29.431Z,3.60
2022-12-01T02:52:34.588Z,3.60
2022-12-01T02:55:46.472Z,3.60
2022-12-01T02:58:50.914Z,3.60
2022-12-01T03:02:04.472Z,3.60
2022-12-01T03:05:21.084Z,3.50
2022-12-01T03:08:35.442Z,3.60
2022-12-01T03:12:00.355Z,3.60
2022-12-01T03:15:04.667Z,3.60
2022-12-01T03:18:18.064Z,3.60
2022-12-01T03:21:41.442Z,3.60
2022-12-01T03:24:47.636Z,3.60
2022-12-01T03:28:20.128Z,3.60
2022-12-01T03:31:24.129Z,3.50
2022-12-01T03:34:32.720Z,3.60
2022-12-01T03:37:45.760Z,3.60
2022-12-01T03:40:51.790Z,3.60
2022-12-01T03:44:02.179Z,3.60
2022-12-01T03:47:09.830Z,3.60
2022-12-01T03:50:15.122Z,3.60
2022-12-01T03:53:23.623Z,3.60
2022-12-01T03:56:30.782Z,3.60
2022-12-01T03:59:36.983Z,3.60
2022-12-01T04:02:41.482Z,3.60
2022-12-01T04:05:46.172Z,3.60
2022-12-01T04:08:50.667Z,3.60
2022-12-01T04:12:13.885Z,3.60
2022-12-01T04:15:18.467Z,3.60
2022-12-01T04:18:23.213Z,3.60
2022-12-01T04:21:27.557Z,3.60
2022-12-01T04:24:31.762Z,3.60
2022-12-01T04:27:37.119Z,3.60
2022-12-01T04:30:41.245Z,3.60
2022-12-01T04:33:46.026Z,3.60
2022-12-01T04:36:50.794Z,3.60
2022-12-01T04:39:55.054Z,3.60
2022-12-01T04:42:59.632Z,3.60
2022-12-01T04:46:04.474Z,3.70
2022-12-01T04:49:09.091Z,3.70
2022-12-01T04:52:13.517Z,3.70
2022-12-01T04:55:18.927Z,3.70
2022-12-01T04:58:23.276Z,3.70
2022-12-01T05:01:28.003Z,3.70
2022-12-01T05:04:34.103Z,3.70
2022-12-01T05:07:38.471Z,3.70
2022-12-01T05:10:43.178Z,3.70
2022-12-01T05:13:48.083Z,3.70
2022-12-01T05:16:52.293Z,3.70
2022-12-01T05:20:15.815Z,3.70
2022-12-01T05:23:20.049Z,3.70
2022-12-01T05:26:24.922Z,3.70
2022-12-01T05:29:29.271Z,3.70
2022-12-01T05:32:33.388Z,3.80
2022-12-01T05:35:37.752Z,3.70
2022-12-01T05:38:42.233Z,3.70
2022-12-01T05:41:46.548Z,3.80
2022-12-01T05:44:50.510Z,3.70
2022-12-01T05:47:58.216Z,3.70
2022-12-01T05:51:12.678Z,3.70
2022-12-01T05:54:17.199Z,3.70
2022-12-01T05:57:21.581Z,3.70
2022-12-01T06:00:25.785Z,3.70
2022-12-01T06:03:29.952Z,3.70
2022-12-01T06:06:34.469Z,3.70
2022-12-01T06:09:38.997Z,3.70
2022-12-01T06:12:43.411Z,3.70
2022-12-01T06:15:55.719Z,3.70
2022-12-01T06:19:00.232Z,3.70
2022-12-01T06:22:05.041Z,3.70
2022-12-01T06:25:09.682Z,3.70
2022-12-01T06:28:13.881Z,3.70
2022-12-01T06:31:18.238Z,3.70
2022-12-01T06:34:23.121Z,3.70
2022-12-01T06:37:27.942Z,3.70
2022-12-01T06:40:32.943Z,3.70
2022-12-01T06:43:40.184Z,3.70
2022-12-01T06:46:44.724Z,3.70
2022-12-01T06:49:49.300Z,3.80
2022-12-01T06:52:54.589Z,3.80
2022-12-01T06:55:59.991Z,3.80
2022-12-01T06:59:04.940Z,3.70
2022-12-01T07:02:10.714Z,3.80
2022-12-01T07:05:15.362Z,3.80
2022-12-01T07:08:19.978Z,3.80
2022-12-01T07:11:24.596Z,3.80
2022-12-01T07:14:28.702Z,3.80
2022-12-01T07:17:34.104Z,3.80
2022-12-01T07:23:41.505Z,3.80
2022-12-01T07:26:45.958Z,3.80
2022-12-01T07:29:50.721Z,3.80
2022-12-01T07:32:55.208Z,3.90
2022-12-01T07:35:59.494Z,3.90
2022-12-01T07:39:07.779Z,3.90
2022-12-01T07:45:31.907Z,3.80
2022-12-01T07:48:37.243Z,3.90
2022-12-01T07:51:25.625Z,3.90
2022-12-01T07:54:29.911Z,3.90
2022-12-01T07:57:28.196Z,4.00
2022-12-01T08:00:22.177Z,4.00
2022-12-01T08:03:31.508Z,4.00
2022-12-01T08:06:39.182Z,3.90
2022-12-01T08:09:33.105Z,4.00
2022-12-01T08:15:40.054Z,4.00
2022-12-01T08:18:48.565Z,4.10
2022-12-01T08:21:53.121Z,4.00
2022-12-01T08:24:57.077Z,4.00
2022-12-01T08:28:01.268Z,4.00
2022-12-01T08:31:16.710Z,4.10
2022-12-01T08:34:21.227Z,4.10
2022-12-01T08:37:28.697Z,4.10
2022-12-01T08:40:33.541Z,4.10
2022-12-01T08:43:57.089Z,4.20
2022-12-01T08:50:06.313Z,4.20
2022-12-01T08:53:06.420Z,4.20
2022-12-01T08:56:12.414Z,4.20
2022-12-01T08:59:16.672Z,4.30
2022-12-01T09:02:24.099Z,4.30
2022-12-01T09:05:28.385Z,4.30
2022-12-01T09:08:33.974Z,4.30
2022-12-01T09:11:39.350Z,4.30
2022-12-01T09:14:48.432Z,4.30
2022-12-01T09:17:53.008Z,4.20
2022-12-01T09:20:58.200Z,4.30
2022-12-01T09:23:56.805Z,4.30
2022-12-01T09:27:03.334Z,4.30
2022-12-01T09:30:08.322Z,4.30
2022-12-01T09:33:13.306Z,4.30
2022-12-01T09:36:18.127Z,4.30
2022-12-01T09:39:22.429Z,4.40
2022-12-01T09:42:32.189Z,4.30
2022-12-01T09:45:40.047Z,4.50
2022-12-01T09:48:45.775Z,4.50
2022-12-01T09:51:50.970Z,4.50
2022-12-01T09:54:46.283Z,4.50
2022-12-01T09:57:52.120Z,4.40
2022-12-01T10:00:57.465Z,4.30
2022-12-01T10:04:07.677Z,4.40
2022-12-01T10:07:15.254Z,4.30
2022-12-01T10:10:21.725Z,4.30
2022-12-01T10:13:27.721Z,4.40
2022-12-01T10:23:12.317Z,4.30
2022-12-01T10:26:42.709Z,4.40
2022-12-01T10:29:48.351Z,4.30
2022-12-01T10:32:54.786Z,4.40
2022-12-01T10:35:59.180Z,4.40
2022-12-01T10:39:04.943Z,4.50
2022-12-01T10:42:14.914Z,4.50
2022-12-01T10:45:30.271Z,4.50
2022-12-01T10:48:51.284Z,4.50
2022-12-01T10:51:56.638Z,4.60
2022-12-01T10:55:01.179Z,4.50
2022-12-01T10:58:12.977Z,4.50
2022-12-01T11:01:25.247Z,4.50
2022-12-01T11:04:34.503Z,4.50
2022-12-01T11:07:42.819Z,4.40
2022-12-01T11:10:48.497Z,4.40
2022-12-01T11:13:53.746Z,4.50
2022-12-01T11:17:13.985Z,4.50
2022-12-01T11:20:27.669Z,4.60
2022-12-01T11:23:31.965Z,4.50
2022-12-01T11:26:36.379Z,4.60
2022-12-01T11:29:41.419Z,4.60
2022-12-01T11:32:51.685Z,4.60
2022-12-01T11:35:56.047Z,4.70
2022-12-01T11:39:01.700Z,4.60
2022-12-01T11:42:12.479Z,4.70
2022-12-01T11:45:26.060Z,4.80
2022-12-01T11:48:31.702Z,4.80
2022-12-01T11:51:39.220Z,4.80
2022-12-01T11:54:54.614Z,4.80
2022-12-01T11:58:00.540Z,4.90
2022-12-01T12:01:09.348Z,4.80
2022-12-01T12:04:32.465Z,4.80
2022-12-01T12:08:06.306Z,4.90
2022-12-01T12:11:18.623Z,4.80
2022-12-01T12:14:28.772Z,4.80
2022-12-01T12:17:44.314Z,4.80
2022-12-01T12:20:49.016Z,4.80
2022-12-01T12:23:53.394Z,4.70
2022-12-01T12:27:09.204Z,4.70
2022-12-01T12:30:19.527Z,4.70
2022-12-01T12:33:49.568Z,4.70
2022-12-01T12:37:09.033Z,4.70
2022-12-01T12:40:14.242Z,4.70
2022-12-01T12:43:22.261Z,4.60
2022-12-01T12:46:32.211Z,4.60
2022-12-01T12:49:43.444Z,4.60
2022-12-01T12:52:53.885Z,4.60
2022-12-01T12:55:59.597Z,4.60
2022-12-01T12:59:08.627Z,4.60
2022-12-01T13:02:16.088Z,4.60
2022-12-01T13:05:23.670Z,4.60
2022-12-01T13:08:40.114Z,4.60
2022-12-01T13:11:47.434Z,4.60
2022-12-01T13:15:10.556Z,4.60
2022-12-01T13:18:36.559Z,4.60
2022-12-01T13:21:42.230Z,4.60
2022-12-01T13:24:46.774Z,4.60
2022-12-01T13:27:51.776Z,4.50
2022-12-01T13:31:00.870Z,4.50
2022-12-01T13:34:05.697Z,4.50
2022-12-01T13:37:10.711Z,4.50
2022-12-01T13:40:26.242Z,4.50
2022-12-01T13:43:30.945Z,4.60
2022-12-01T13:46:41.727Z,4.50
2022-12-01T13:49:47.856Z,4.50
2022-12-01T13:53:06.628Z,4.50
2022-12-01T13:56:17.281Z,4.60
2022-12-01T13:59:38.027Z,4.60
2022-12-01T14:02:42.532Z,4.50
2022-12-01T14:05:53.179Z,4.40
2022-12-01T14:09:02.699Z,4.50
2022-12-01T14:12:22.137Z,4.50
2022-12-01T14:15:40.312Z,4.50
2022-12-01T14:18:51.363Z,4.50
2022-12-01T14:21:57.593Z,4.50
2022-12-01T14:25:02.857Z,4.50
2022-12-01T14:28:13.274Z,4.40
2022-12-01T14:31:17.559Z,4.40
2022-12-01T14:34:24.442Z,4.40
2022-12-01T14:37:33.213Z,4.40
2022-12-01T14:40:43.796Z,4.40
2022-12-01T14:44:03.935Z,4.40
2022-12-01T14:47:13.636Z,4.40
2022-12-01T14:50:18.292Z,4.30
2022-12-01T14:53:22.748Z,4.40
2022-12-01T14:59:26.128Z,4.30
2022-12-01T15:02:30.454Z,4.30
2022-12-01T15:05:39.584Z,4.30
2022-12-01T15:08:58.356Z,4.30
2022-12-01T15:12:19.965Z,4.30
2022-12-01T15:15:26.080Z,4.20
2022-12-01T15:18:31.847Z,4.20
2022-12-01T15:21:37.181Z,4.20
2022-12-01T15:24:42.071Z,4.10
2022-12-01T15:27:46.452Z,4.00
2022-12-01T15:30:53.427Z,4.00
2022-12-01T15:33:57.848Z,4.00
2022-12-01T15:37:06.987Z,4.00
2022-12-01T15:43:40.039Z,3.90
2022-12-01T15:46:44.928Z,3.90
2022-12-01T15:49:49.714Z,3.90
2022-12-01T15:52:53.800Z,3.80
2022-12-01T15:55:59.315Z,3.70
2022-12-01T15:59:19.534Z,3.80
2022-12-01T16:02:26.823Z,3.80
2022-12-01T16:05:32.761Z,3.70
2022-12-01T16:08:37.191Z,3.70
2022-12-01T16:12:01.785Z,3.70
2022-12-01T16:15:10.034Z,3.70
2022-12-01T16:18:28.408Z,3.60
2022-12-01T16:21:34.590Z,3.60
2022-12-01T16:24:53.221Z,3.60
2022-12-01T16:27:58.127Z,3.60
2022-12-01T16:31:09.138Z,3.60
2022-12-01T16:34:44.041Z,3.70
2022-12-01T16:37:41.405Z,3.60
2022-12-01T16:40:46.134Z,3.60
2022-12-01T16:44:20.192Z,3.60
2022-12-01T16:47:20.187Z,3.60
2022-12-01T16:50:24.593Z,3.60
2022-12-01T16:53:29.124Z,3.50
2022-12-01T16:56:33.052Z,3.50
2022-12-01T16:59:37.571Z,3.50
2022-12-01T17:02:41.669Z,3.60
2022-12-01T17:05:46.477Z,3.50
2022-12-01T17:08:50.725Z,3.60
2022-12-01T17:11:56.318Z,3.60
2022-12-01T17:15:00.455Z,3.60
2022-12-01T17:18:04.830Z,3.70
2022-12-01T17:21:10.170Z,3.70
2022-12-01T17:24:18.876Z,3.70
2022-12-01T17:27:25.140Z,3.70
2022-12-01T17:30:29.582Z,3.80
2022-12-01T17:33:34.037Z,3.80
2022-12-01T17:36:38.245Z,3.80
2022-12-01T17:39:42.688Z,3.80
2022-12-01T17:42:50.655Z,3.90
2022-12-01T17:45:55.991Z,3.80
2022-12-01T17:49:00.424Z,3.80
2022-12-01T17:52:05.029Z,3.90
2022-12-01T17:55:09.568Z,3.90
2022-12-01T17:58:13.698Z,3.80
2022-12-01T18:01:18.918Z,3.70
2022-12-01T18:04:23.415Z,3.70
2022-12-01T18:07:28.685Z,3.60
2022-12-01T18:10:33.189Z,3.50
2022-12-01T18:13:41.232Z,3.50
2022-12-01T18:16:46.132Z,3.40
2022-12-01T18:19:50.964Z,3.50
2022-12-01T18:22:55.275Z,3.50
2022-12-01T18:26:04.273Z,3.50
2022-12-01T18:29:12.227Z,3.50
2022-12-01T18:32:16.913Z,3.50
2022-12-01T18:35:20.953Z,3.50
2022-12-01T18:38:25.684Z,3.60
2022-12-01T18:41:29.972Z,3.60
2022-12-01T18:44:34.294Z,3.60
2022-12-01T18:47:38.531Z,3.60
2022-12-01T18:50:42.738Z,3.60
2022-12-01T18:53:46.695Z,3.60
2022-12-01T18:56:51.656Z,3.60
2022-12-01T18:59:55.998Z,3.60
2022-12-01T19:03:00.240Z,3.70
2022-12-01T19:06:06.209Z,3.60
2022-12-01T19:09:11.600Z,3.70
2022-12-01T19:12:16.065Z,3.70
2022-12-01T19:15:20.049Z,3.60
2022-12-01T19:18:24.677Z,3.70
2022-12-01T19:21:28.983Z,3.70
2022-12-01T19:24:33.209Z,3.70
2022-12-01T19:27:37.834Z,3.70
2022-12-01T19:30:47.958Z,3.70
2022-12-01T19:33:55.482Z,3.70
2022-12-01T19:37:01.741Z,3.70
2022-12-01T19:40:06.722Z,3.70
2022-12-01T19:43:11.762Z,3.70
2022-12-01T19:46:17.193Z,3.60
2022-12-01T19:49:22.044Z,3.70
2022-12-01T19:52:26.981Z,3.70
2022-12-01T19:55:31.560Z,3.70
2022-12-01T19:58:35.872Z,3.80
2022-12-01T20:01:40.452Z,3.70
2022-12-01T20:04:44.773Z,3.70
2022-12-01T20:07:48.946Z,3.70
2022-12-01T20:10:53.398Z,3.80
2022-12-01T20:13:57.326Z,3.80
2022-12-01T20:17:01.523Z,3.70
2022-12-01T20:20:06.409Z,3.70
2022-12-01T20:23:10.811Z,3.70
2022-12-01T20:26:15.848Z,3.70
2022-12-01T20:29:21.997Z,3.70
2022-12-01T20:32:26.963Z,3.70
2022-12-01T20:35:31.033Z,3.70
2022-12-01T20:38:35.999Z,3.70
2022-12-01T20:41:40.773Z,3.70
2022-12-01T20:44:44.933Z,3.70
2022-12-01T20:47:48.819Z,3.70
2022-12-01T20:50:52.808Z,3.70
2022-12-01T20:54:26.087Z,3.70
2022-12-01T20:57:21.120Z,3.70
2022-12-01T21:00:25.684Z,3.80
2022-12-01T21:03:29.665Z,3.80
2022-12-01T21:06:33.576Z,3.70
2022-12-01T21:09:37.679Z,3.80
2022-12-01T21:13:01.043Z,3.80
2022-12-01T21:16:13.742Z,3.80
2022-12-01T21:19:22.958Z,3.70
2022-12-01T21:22:27.410Z,3.80
2022-12-01T21:25:31.774Z,3.70
2022-12-01T21:28:36.759Z,3.70
2022-12-01T21:31:41.250Z,3.70
2022-12-01T21:34:46.608Z,3.70
2022-12-01T21:37:54.469Z,3.70
2022-12-01T21:40:58.594Z,3.70
2022-12-01T21:44:07.528Z,3.70
2022-12-01T21:47:17.359Z,3.70
2022-12-01T21:50:25.267Z,3.70
2022-12-01T21:53:33.454Z,3.70
2022-12-01T21:56:37.873Z,3.70
2022-12-01T21:59:41.817Z,3.70
2022-12-01T22:02:49.997Z,3.70
2022-12-01T22:06:28.190Z,3.70
2022-12-01T22:09:30.769Z,3.70
2022-12-01T22:12:34.852Z,3.60
2022-12-01T22:15:40.138Z,3.60
2022-12-01T22:18:45.857Z,3.60
2022-12-01T22:21:57.372Z,3.60
2022-12-01T22:25:24.807Z,3.50
2022-12-01T22:28:28.854Z,3.60
2022-12-01T22:31:33.955Z,3.60
2022-12-01T22:34:38.901Z,3.60
2022-12-01T22:37:47.732Z,3.50
2022-12-01T22:40:55.160Z,3.60
2022-12-01T22:44:00.691Z,3.50
2022-12-01T22:47:04.796Z,3.60
2022-12-01T22:50:28.851Z,3.50
2022-12-01T22:53:32.971Z,3.50
2022-12-01T22:56:39.359Z,3.50
2022-12-01T22:59:43.886Z,3.50
2022-12-01T23:02:48.617Z,3.40
2022-12-01T23:05:57.177Z,3.40
2022-12-01T23:09:01.639Z,3.40
2022-12-01T23:12:16.512Z,3.40
2022-12-01T23:15:32.171Z,3.30
2022-12-01T23:18:36.251Z,3.30
2022-12-01T23:21:40.225Z,3.30
2022-12-01T23:24:44.647Z,3.30
2022-12-01T23:27:50.412Z,3.20
2022-12-01T23:30:56.279Z,3.30
2022-12-01T23:34:00.917Z,3.30
2022-12-01T23:37:14.156Z,3.30
2022-12-01T23:40:31.602Z,3.30
2022-12-01T23:43:38.396Z,3.40
2022-12-01T23:46:42.911Z,3.40
2022-12-01T23:49:47.868Z,3.40
2022-12-01T23:52:52.089Z,3.40
2022-12-01T23:55:58.121Z,3.40
2022-12-01T23:59:02.501Z,3.30
